sensor_id;sensor_type;location;lat;lon;timestamp;P1;durP1;ratioP1;P2;durP2;ratioP2
146;SDS011;45999;48.808;9.182;2024-03-08T00:02:41;21.87;;;15.73;;
146;SDS011;45999;48.808;9.182;2024-03-08T00:05:10;20.53;;;16.00;;
146;SDS011;45999;48.808;9.182;2024-03-08T00:07:41;22.47;;;16.63;;
146;SDS011;45999;48.808;9.182;2024-03-08T00:10:14;21.87;;;16.50;;
146;SDS011;45999;48.808;9.182;2024-03-08T00:12:44;22.13;;;16.37;;
146;SDS011;45999;48.808;9.182;2024-03-08T00:15:16;21.40;;;17.10;;
146;SDS011;45999;48.808;9.182;2024-03-08T00:17:50;21.10;;;16.67;;
146;SDS011;45999;48.808;9.182;2024-03-08T00:20:25;22.47;;;16.97;;
146;SDS011;45999;48.808;9.182;2024-03-08T00:22:55;18.77;;;15.10;;
146;SDS011;45999;48.808;9.182;2024-03-08T00:25:24;18.77;;;16.20;;
146;SDS011;45999;48.808;9.182;2024-03-08T00:27:53;21.03;;;16.53;;
146;SDS011;45999;48.808;9.182;2024-03-08T00:30:21;22.30;;;16.57;;
146;SDS011;45999;48.808;9.182;2024-03-08T00:32:50;19.23;;;15.83;;
146;SDS011;45999;48.808;9.182;2024-03-08T00:35:24;20.07;;;16.53;;
146;SDS011;45999;48.808;9.182;2024-03-08T00:37:54;19.17;;;15.77;;
146;SDS011;45999;48.808;9.182;2024-03-08T00:40:23;23.57;;;16.27;;
146;SDS011;45999;48.808;9.182;2024-03-08T00:42:56;21.67;;;17.27;;
146;SDS011;45999;48.808;9.182;2024-03-08T00:45:23;21.07;;;16.20;;
146;SDS011;45999;48.808;9.182;2024-03-08T00:47:51;20.27;;;15.43;;
146;SDS011;45999;48.808;9.182;2024-03-08T00:50:17;20.37;;;16.10;;
146;SDS011;45999;48.808;9.182;2024-03-08T00:52:47;21.67;;;17.40;;
146;SDS011;45999;48.808;9.182;2024-03-08T00:55:15;22.77;;;16.83;;
146;SDS011;45999;48.808;9.182;2024-03-08T00:57:43;19.20;;;15.33;;
146;SDS011;45999;48.808;9.182;2024-03-08T01:00:10;21.80;;;16.43;;
146;SDS011;45999;48.808;9.182;2024-03-08T01:02:40;19.23;;;15.43;;
146;SDS011;45999;48.808;9.182;2024-03-08T01:05:09;18.80;;;15.73;;
146;SDS011;45999;48.808;9.182;2024-03-08T01:07:40;21.77;;;15.97;;
146;SDS011;45999;48.808;9.182;2024-03-08T01:10:07;20.43;;;16.27;;
146;SDS011;45999;48.808;9.182;2024-03-08T01:12:36;19.37;;;16.20;;
146;SDS011;45999;48.808;9.182;2024-03-08T01:15:06;21.90;;;16.23;;
146;SDS011;45999;48.808;9.182;2024-03-08T01:17:34;22.93;;;15.10;;
146;SDS011;45999;48.808;9.182;2024-03-08T01:20:04;20.93;;;15.27;;
146;SDS011;45999;48.808;9.182;2024-03-08T01:22:37;19.93;;;15.77;;
146;SDS011;45999;48.808;9.182;2024-03-08T01:25:04;20.47;;;15.87;;
146;SDS011;45999;48.808;9.182;2024-03-08T01:27:31;19.67;;;15.73;;
146;SDS011;45999;48.808;9.182;2024-03-08T01:29:58;19.97;;;15.50;;
146;SDS011;45999;48.808;9.182;2024-03-08T01:32:24;22.03;;;16.57;;
146;SDS011;45999;48.808;9.182;2024-03-08T01:34:51;22.07;;;16.50;;
146;SDS011;45999;48.808;9.182;2024-03-08T01:37:17;20.10;;;16.37;;
146;SDS011;45999;48.808;9.182;2024-03-08T01:39:43;20.60;;;15.43;;
146;SDS011;45999;48.808;9.182;2024-03-08T01:42:09;21.77;;;15.63;;
146;SDS011;45999;48.808;9.182;2024-03-08T01:44:38;21.03;;;15.87;;
146;SDS011;45999;48.808;9.182;2024-03-08T01:47:05;21.20;;;16.23;;
146;SDS011;45999;48.808;9.182;2024-03-08T01:49:32;22.30;;;16.37;;
146;SDS011;45999;48.808;9.182;2024-03-08T01:51:58;22.67;;;16.40;;
146;SDS011;45999;48.808;9.182;2024-03-08T01:54:25;21.43;;;16.47;;
146;SDS011;45999;48.808;9.182;2024-03-08T01:56:52;19.00;;;15.67;;
146;SDS011;45999;48.808;9.182;2024-03-08T01:59:19;20.63;;;16.00;;
146;SDS011;45999;48.808;9.182;2024-03-08T02:01:46;20.87;;;16.37;;
146;SDS011;45999;48.808;9.182;2024-03-08T02:04:12;19.57;;;15.90;;
146;SDS011;45999;48.808;9.182;2024-03-08T02:06:39;20.07;;;16.20;;
146;SDS011;45999;48.808;9.182;2024-03-08T02:09:05;18.73;;;15.80;;
146;SDS011;45999;48.808;9.182;2024-03-08T02:11:33;20.17;;;16.10;;
146;SDS011;45999;48.808;9.182;2024-03-08T02:14:01;24.57;;;16.70;;
146;SDS011;45999;48.808;9.182;2024-03-08T02:16:27;19.77;;;14.90;;
146;SDS011;45999;48.808;9.182;2024-03-08T02:18:53;22.27;;;15.73;;
146;SDS011;45999;48.808;9.182;2024-03-08T02:21:21;23.20;;;15.97;;
146;SDS011;45999;48.808;9.182;2024-03-08T02:23:47;22.47;;;16.00;;
146;SDS011;45999;48.808;9.182;2024-03-08T02:26:17;19.03;;;14.93;;
146;SDS011;45999;48.808;9.182;2024-03-08T02:28:44;20.80;;;15.93;;
146;SDS011;45999;48.808;9.182;2024-03-08T02:31:11;21.10;;;15.80;;
146;SDS011;45999;48.808;9.182;2024-03-08T02:33:37;19.57;;;15.67;;
146;SDS011;45999;48.808;9.182;2024-03-08T02:36:04;21.77;;;15.53;;
146;SDS011;45999;48.808;9.182;2024-03-08T02:38:31;20.07;;;15.53;;
146;SDS011;45999;48.808;9.182;2024-03-08T02:40:58;18.87;;;15.40;;
146;SDS011;45999;48.808;9.182;2024-03-08T02:43:24;19.73;;;14.53;;
146;SDS011;45999;48.808;9.182;2024-03-08T02:45:50;18.30;;;14.47;;
146;SDS011;45999;48.808;9.182;2024-03-08T02:48:18;19.40;;;15.10;;
146;SDS011;45999;48.808;9.182;2024-03-08T02:50:44;18.77;;;15.00;;
146;SDS011;45999;48.808;9.182;2024-03-08T02:53:11;21.53;;;15.03;;
146;SDS011;45999;48.808;9.182;2024-03-08T02:55:41;19.97;;;14.93;;
146;SDS011;45999;48.808;9.182;2024-03-08T02:58:07;18.77;;;14.83;;
146;SDS011;45999;48.808;9.182;2024-03-08T03:00:35;17.90;;;14.63;;
146;SDS011;45999;48.808;9.182;2024-03-08T03:03:02;20.70;;;15.30;;
146;SDS011;45999;48.808;9.182;2024-03-08T03:05:29;18.93;;;14.93;;
146;SDS011;45999;48.808;9.182;2024-03-08T03:07:56;21.70;;;15.10;;
146;SDS011;45999;48.808;9.182;2024-03-08T03:10:23;19.77;;;14.67;;
146;SDS011;45999;48.808;9.182;2024-03-08T03:12:49;17.83;;;14.70;;
146;SDS011;45999;48.808;9.182;2024-03-08T03:15:16;20.00;;;14.17;;
146;SDS011;45999;48.808;9.182;2024-03-08T03:17:47;20.83;;;14.30;;
146;SDS011;45999;48.808;9.182;2024-03-08T03:20:17;18.10;;;15.30;;
146;SDS011;45999;48.808;9.182;2024-03-08T03:22:51;18.70;;;14.47;;
146;SDS011;45999;48.808;9.182;2024-03-08T03:25:20;17.63;;;14.23;;
146;SDS011;45999;48.808;9.182;2024-03-08T03:27:50;18.40;;;13.67;;
146;SDS011;45999;48.808;9.182;2024-03-08T03:30:17;18.80;;;13.57;;
146;SDS011;45999;48.808;9.182;2024-03-08T03:32:49;15.90;;;13.60;;
146;SDS011;45999;48.808;9.182;2024-03-08T03:35:17;18.00;;;14.17;;
146;SDS011;45999;48.808;9.182;2024-03-08T03:37:45;17.73;;;14.07;;
146;SDS011;45999;48.808;9.182;2024-03-08T03:40:26;16.17;;;13.93;;
146;SDS011;45999;48.808;9.182;2024-03-08T03:42:54;16.80;;;13.07;;
146;SDS011;45999;48.808;9.182;2024-03-08T03:45:20;16.50;;;13.07;;
146;SDS011;45999;48.808;9.182;2024-03-08T03:47:47;14.90;;;12.50;;
146;SDS011;45999;48.808;9.182;2024-03-08T03:50:13;17.20;;;13.30;;
146;SDS011;45999;48.808;9.182;2024-03-08T03:52:39;19.27;;;14.40;;
146;SDS011;45999;48.808;9.182;2024-03-08T03:55:07;18.90;;;13.23;;
146;SDS011;45999;48.808;9.182;2024-03-08T03:57:36;18.37;;;14.00;;
146;SDS011;45999;48.808;9.182;2024-03-08T04:00:03;17.13;;;13.40;;
146;SDS011;45999;48.808;9.182;2024-03-08T04:02:31;16.40;;;13.60;;
146;SDS011;45999;48.808;9.182;2024-03-08T04:04:57;17.10;;;14.10;;
146;SDS011;45999;48.808;9.182;2024-03-08T04:07:24;17.43;;;13.93;;
146;SDS011;45999;48.808;9.182;2024-03-08T04:09:50;18.47;;;13.27;;
146;SDS011;45999;48.808;9.182;2024-03-08T04:12:16;18.30;;;13.27;;
146;SDS011;45999;48.808;9.182;2024-03-08T04:14:43;18.27;;;14.03;;
146;SDS011;45999;48.808;9.182;2024-03-08T04:17:09;17.33;;;13.40;;
146;SDS011;45999;48.808;9.182;2024-03-08T04:19:36;17.67;;;13.57;;
146;SDS011;45999;48.808;9.182;2024-03-08T04:22:03;19.07;;;15.00;;
146;SDS011;45999;48.808;9.182;2024-03-08T04:24:29;17.53;;;13.37;;
146;SDS011;45999;48.808;9.182;2024-03-08T04:26:56;19.70;;;14.40;;
146;SDS011;45999;48.808;9.182;2024-03-08T04:29:22;20.00;;;15.07;;
146;SDS011;45999;48.808;9.182;2024-03-08T04:31:49;18.60;;;14.17;;
146;SDS011;45999;48.808;9.182;2024-03-08T04:34:19;16.60;;;13.47;;
146;SDS011;45999;48.808;9.182;2024-03-08T04:36:45;18.47;;;14.63;;
146;SDS011;45999;48.808;9.182;2024-03-08T04:39:12;20.40;;;15.07;;
146;SDS011;45999;48.808;9.182;2024-03-08T04:41:40;17.90;;;14.77;;
146;SDS011;45999;48.808;9.182;2024-03-08T04:44:08;19.70;;;14.57;;
146;SDS011;45999;48.808;9.182;2024-03-08T04:46:35;17.37;;;14.17;;
146;SDS011;45999;48.808;9.182;2024-03-08T04:49:01;18.93;;;14.73;;
146;SDS011;45999;48.808;9.182;2024-03-08T04:51:28;18.07;;;14.40;;
146;SDS011;45999;48.808;9.182;2024-03-08T04:53:54;20.37;;;15.23;;
146;SDS011;45999;48.808;9.182;2024-03-08T04:56:22;20.27;;;15.70;;
146;SDS011;45999;48.808;9.182;2024-03-08T04:58:48;20.33;;;15.50;;
146;SDS011;45999;48.808;9.182;2024-03-08T05:01:15;20.50;;;15.60;;
146;SDS011;45999;48.808;9.182;2024-03-08T05:03:41;18.20;;;14.87;;
146;SDS011;45999;48.808;9.182;2024-03-08T05:06:07;21.80;;;15.23;;
146;SDS011;45999;48.808;9.182;2024-03-08T05:08:34;18.83;;;14.73;;
146;SDS011;45999;48.808;9.182;2024-03-08T05:11:00;19.97;;;15.63;;
146;SDS011;45999;48.808;9.182;2024-03-08T05:13:29;20.27;;;15.00;;
146;SDS011;45999;48.808;9.182;2024-03-08T05:15:59;19.60;;;15.43;;
146;SDS011;45999;48.808;9.182;2024-03-08T05:18:26;18.13;;;14.63;;
146;SDS011;45999;48.808;9.182;2024-03-08T05:20:53;21.30;;;16.17;;
146;SDS011;45999;48.808;9.182;2024-03-08T05:23:19;19.30;;;15.50;;
146;SDS011;45999;48.808;9.182;2024-03-08T05:25:47;18.93;;;15.23;;
146;SDS011;45999;48.808;9.182;2024-03-08T05:28:13;20.80;;;15.53;;
146;SDS011;45999;48.808;9.182;2024-03-08T05:30:40;20.03;;;15.47;;
146;SDS011;45999;48.808;9.182;2024-03-08T05:33:06;18.50;;;15.40;;
146;SDS011;45999;48.808;9.182;2024-03-08T05:35:35;19.47;;;15.37;;
146;SDS011;45999;48.808;9.182;2024-03-08T05:38:02;19.67;;;15.07;;
146;SDS011;45999;48.808;9.182;2024-03-08T05:40:29;20.30;;;15.93;;
146;SDS011;45999;48.808;9.182;2024-03-08T05:42:57;19.63;;;15.10;;
146;SDS011;45999;48.808;9.182;2024-03-08T05:45:24;21.40;;;16.13;;
146;SDS011;45999;48.808;9.182;2024-03-08T05:47:51;23.20;;;16.90;;
146;SDS011;45999;48.808;9.182;2024-03-08T05:50:18;21.37;;;16.33;;
146;SDS011;45999;48.808;9.182;2024-03-08T05:52:45;24.57;;;17.43;;
146;SDS011;45999;48.808;9.182;2024-03-08T05:55:12;21.47;;;16.27;;
146;SDS011;45999;48.808;9.182;2024-03-08T05:57:39;22.30;;;16.30;;
146;SDS011;45999;48.808;9.182;2024-03-08T06:00:07;19.80;;;16.33;;
146;SDS011;45999;48.808;9.182;2024-03-08T06:02:36;21.00;;;16.97;;
146;SDS011;45999;48.808;9.182;2024-03-08T06:05:06;19.57;;;16.03;;
146;SDS011;45999;48.808;9.182;2024-03-08T06:07:34;22.93;;;17.10;;
146;SDS011;45999;48.808;9.182;2024-03-08T06:10:00;22.10;;;16.47;;
146;SDS011;45999;48.808;9.182;2024-03-08T06:12:27;21.43;;;15.63;;
146;SDS011;45999;48.808;9.182;2024-03-08T06:14:57;22.57;;;16.80;;
146;SDS011;45999;48.808;9.182;2024-03-08T06:17:23;21.17;;;16.63;;
146;SDS011;45999;48.808;9.182;2024-03-08T06:19:50;24.83;;;17.13;;
146;SDS011;45999;48.808;9.182;2024-03-08T06:22:17;21.53;;;16.07;;
146;SDS011;45999;48.808;9.182;2024-03-08T06:24:45;22.73;;;16.43;;
146;SDS011;45999;48.808;9.182;2024-03-08T06:27:12;21.40;;;15.97;;
146;SDS011;45999;48.808;9.182;2024-03-08T06:29:39;19.57;;;15.90;;
146;SDS011;45999;48.808;9.182;2024-03-08T06:32:05;20.53;;;15.77;;
146;SDS011;45999;48.808;9.182;2024-03-08T06:34:32;19.53;;;15.50;;
146;SDS011;45999;48.808;9.182;2024-03-08T06:36:59;22.87;;;16.43;;
146;SDS011;45999;48.808;9.182;2024-03-08T06:39:26;19.73;;;15.50;;
146;SDS011;45999;48.808;9.182;2024-03-08T06:41:55;23.40;;;16.70;;
146;SDS011;45999;48.808;9.182;2024-03-08T06:44:21;18.67;;;15.50;;
146;SDS011;45999;48.808;9.182;2024-03-08T06:46:47;19.40;;;15.00;;
146;SDS011;45999;48.808;9.182;2024-03-08T06:49:14;19.67;;;15.67;;
146;SDS011;45999;48.808;9.182;2024-03-08T06:51:41;20.20;;;15.73;;
146;SDS011;45999;48.808;9.182;2024-03-08T06:54:07;23.93;;;16.67;;
146;SDS011;45999;48.808;9.182;2024-03-08T06:56:34;21.30;;;16.03;;
146;SDS011;45999;48.808;9.182;2024-03-08T06:59:01;22.73;;;15.87;;
146;SDS011;45999;48.808;9.182;2024-03-08T07:01:28;20.03;;;15.47;;
146;SDS011;45999;48.808;9.182;2024-03-08T07:03:57;19.27;;;15.13;;
146;SDS011;45999;48.808;9.182;2024-03-08T07:06:24;20.63;;;15.40;;
146;SDS011;45999;48.808;9.182;2024-03-08T07:08:51;16.70;;;14.83;;
146;SDS011;45999;48.808;9.182;2024-03-08T07:11:17;18.20;;;14.77;;
146;SDS011;45999;48.808;9.182;2024-03-08T07:13:46;20.23;;;15.63;;
146;SDS011;45999;48.808;9.182;2024-03-08T07:16:12;19.13;;;15.50;;
146;SDS011;45999;48.808;9.182;2024-03-08T07:18:39;19.13;;;15.47;;
146;SDS011;45999;48.808;9.182;2024-03-08T07:21:08;19.00;;;15.73;;
146;SDS011;45999;48.808;9.182;2024-03-08T07:23:35;19.33;;;15.20;;
146;SDS011;45999;48.808;9.182;2024-03-08T07:26:27;19.23;;;15.50;;
146;SDS011;45999;48.808;9.182;2024-03-08T07:28:54;19.77;;;16.13;;
146;SDS011;45999;48.808;9.182;2024-03-08T07:31:20;18.60;;;15.17;;
146;SDS011;45999;48.808;9.182;2024-03-08T07:33:56;19.57;;;15.20;;
146;SDS011;45999;48.808;9.182;2024-03-08T07:36:23;19.57;;;15.07;;
146;SDS011;45999;48.808;9.182;2024-03-08T07:38:50;18.87;;;14.77;;
146;SDS011;45999;48.808;9.182;2024-03-08T07:41:16;18.60;;;15.27;;
146;SDS011;45999;48.808;9.182;2024-03-08T07:43:43;18.97;;;15.23;;
146;SDS011;45999;48.808;9.182;2024-03-08T07:46:09;21.37;;;15.10;;
146;SDS011;45999;48.808;9.182;2024-03-08T07:48:36;17.87;;;14.90;;
146;SDS011;45999;48.808;9.182;2024-03-08T07:51:04;23.13;;;15.73;;
146;SDS011;45999;48.808;9.182;2024-03-08T07:53:34;20.67;;;15.53;;
146;SDS011;45999;48.808;9.182;2024-03-08T07:56:00;20.17;;;15.50;;
146;SDS011;45999;48.808;9.182;2024-03-08T07:58:27;18.97;;;14.80;;
146;SDS011;45999;48.808;9.182;2024-03-08T08:00:53;16.83;;;14.30;;
146;SDS011;45999;48.808;9.182;2024-03-08T08:03:19;19.77;;;15.63;;
146;SDS011;45999;48.808;9.182;2024-03-08T08:05:46;19.10;;;15.33;;
146;SDS011;45999;48.808;9.182;2024-03-08T08:08:14;19.50;;;15.53;;
146;SDS011;45999;48.808;9.182;2024-03-08T08:10:40;17.47;;;14.07;;
146;SDS011;45999;48.808;9.182;2024-03-08T08:13:07;18.83;;;14.07;;
146;SDS011;45999;48.808;9.182;2024-03-08T08:15:33;19.57;;;14.83;;
146;SDS011;45999;48.808;9.182;2024-03-08T08:18:00;18.33;;;14.63;;
146;SDS011;45999;48.808;9.182;2024-03-08T08:20:27;18.63;;;14.57;;
146;SDS011;45999;48.808;9.182;2024-03-08T08:22:54;19.57;;;15.47;;
146;SDS011;45999;48.808;9.182;2024-03-08T08:25:20;16.50;;;13.97;;
146;SDS011;45999;48.808;9.182;2024-03-08T08:27:49;20.33;;;14.63;;
146;SDS011;45999;48.808;9.182;2024-03-08T08:30:15;21.27;;;15.87;;
146;SDS011;45999;48.808;9.182;2024-03-08T08:32:42;21.10;;;16.10;;
146;SDS011;45999;48.808;9.182;2024-03-08T08:35:08;18.10;;;14.40;;
146;SDS011;45999;48.808;9.182;2024-03-08T08:37:38;18.67;;;13.83;;
146;SDS011;45999;48.808;9.182;2024-03-08T08:40:05;17.90;;;14.67;;
146;SDS011;45999;48.808;9.182;2024-03-08T08:42:34;18.30;;;14.30;;
146;SDS011;45999;48.808;9.182;2024-03-08T08:45:02;18.80;;;14.83;;
146;SDS011;45999;48.808;9.182;2024-03-08T08:47:32;15.83;;;13.43;;
146;SDS011;45999;48.808;9.182;2024-03-08T08:49:59;17.13;;;13.50;;
146;SDS011;45999;48.808;9.182;2024-03-08T08:52:25;20.17;;;15.33;;
146;SDS011;45999;48.808;9.182;2024-03-08T08:54:54;18.87;;;15.13;;
146;SDS011;45999;48.808;9.182;2024-03-08T08:57:20;20.10;;;14.30;;
146;SDS011;45999;48.808;9.182;2024-03-08T08:59:46;19.47;;;14.60;;
146;SDS011;45999;48.808;9.182;2024-03-08T09:02:13;18.53;;;15.10;;
146;SDS011;45999;48.808;9.182;2024-03-08T09:04:41;18.13;;;14.60;;
146;SDS011;45999;48.808;9.182;2024-03-08T09:07:08;18.87;;;14.40;;
146;SDS011;45999;48.808;9.182;2024-03-08T09:09:35;20.73;;;14.80;;
146;SDS011;45999;48.808;9.182;2024-03-08T09:12:01;18.77;;;15.00;;
146;SDS011;45999;48.808;9.182;2024-03-08T09:14:27;18.23;;;15.37;;
146;SDS011;45999;48.808;9.182;2024-03-08T09:16:54;20.07;;;15.20;;
146;SDS011;45999;48.808;9.182;2024-03-08T09:19:21;18.20;;;13.70;;
146;SDS011;45999;48.808;9.182;2024-03-08T09:21:50;18.43;;;15.33;;
146;SDS011;45999;48.808;9.182;2024-03-08T09:24:16;17.57;;;14.53;;
146;SDS011;45999;48.808;9.182;2024-03-08T09:26:42;16.30;;;13.60;;
146;SDS011;45999;48.808;9.182;2024-03-08T09:29:09;16.10;;;13.00;;
146;SDS011;45999;48.808;9.182;2024-03-08T09:31:36;17.27;;;14.03;;
146;SDS011;45999;48.808;9.182;2024-03-08T09:34:04;15.97;;;13.90;;
146;SDS011;45999;48.808;9.182;2024-03-08T09:36:33;17.57;;;13.87;;
146;SDS011;45999;48.808;9.182;2024-03-08T09:39:00;17.80;;;14.37;;
146;SDS011;45999;48.808;9.182;2024-03-08T09:41:27;15.83;;;13.47;;
146;SDS011;45999;48.808;9.182;2024-03-08T09:43:55;17.77;;;13.50;;
146;SDS011;45999;48.808;9.182;2024-03-08T09:46:24;16.57;;;13.13;;
146;SDS011;45999;48.808;9.182;2024-03-08T09:48:51;17.43;;;13.53;;
146;SDS011;45999;48.808;9.182;2024-03-08T09:51:20;17.53;;;14.20;;
146;SDS011;45999;48.808;9.182;2024-03-08T09:53:52;17.60;;;13.57;;
146;SDS011;45999;48.808;9.182;2024-03-08T09:56:19;15.70;;;12.73;;
146;SDS011;45999;48.808;9.182;2024-03-08T09:58:48;18.23;;;13.90;;
146;SDS011;45999;48.808;9.182;2024-03-08T10:01:39;16.40;;;13.27;;
146;SDS011;45999;48.808;9.182;2024-03-08T10:04:06;16.93;;;13.13;;
146;SDS011;45999;48.808;9.182;2024-03-08T10:06:35;15.63;;;13.00;;
146;SDS011;45999;48.808;9.182;2024-03-08T10:09:02;16.53;;;13.63;;
146;SDS011;45999;48.808;9.182;2024-03-08T10:11:31;15.63;;;13.37;;
146;SDS011;45999;48.808;9.182;2024-03-08T10:13:57;17.00;;;13.47;;
146;SDS011;45999;48.808;9.182;2024-03-08T10:16:27;16.00;;;12.97;;
146;SDS011;45999;48.808;9.182;2024-03-08T10:18:55;15.13;;;13.10;;
146;SDS011;45999;48.808;9.182;2024-03-08T10:21:22;15.57;;;12.57;;
146;SDS011;45999;48.808;9.182;2024-03-08T10:23:50;15.23;;;12.37;;
146;SDS011;45999;48.808;9.182;2024-03-08T10:26:17;15.43;;;13.20;;
146;SDS011;45999;48.808;9.182;2024-03-08T10:28:46;15.50;;;12.77;;
146;SDS011;45999;48.808;9.182;2024-03-08T10:31:14;13.73;;;11.83;;
146;SDS011;45999;48.808;9.182;2024-03-08T10:33:42;17.70;;;13.63;;
146;SDS011;45999;48.808;9.182;2024-03-08T10:36:09;15.53;;;12.70;;
146;SDS011;45999;48.808;9.182;2024-03-08T10:38:38;18.07;;;12.47;;
146;SDS011;45999;48.808;9.182;2024-03-08T10:41:06;16.07;;;13.27;;
146;SDS011;45999;48.808;9.182;2024-03-08T10:44:21;16.37;;;13.27;;
146;SDS011;45999;48.808;9.182;2024-03-08T10:49:16;14.23;;;12.30;;
146;SDS011;45999;48.808;9.182;2024-03-08T10:51:44;15.87;;;12.93;;
146;SDS011;45999;48.808;9.182;2024-03-08T10:54:12;15.80;;;12.77;;
146;SDS011;45999;48.808;9.182;2024-03-08T10:56:41;17.23;;;13.70;;
146;SDS011;45999;48.808;9.182;2024-03-08T10:59:08;15.53;;;13.13;;
146;SDS011;45999;48.808;9.182;2024-03-08T11:01:34;17.90;;;12.40;;
146;SDS011;45999;48.808;9.182;2024-03-08T11:04:03;17.13;;;13.17;;
146;SDS011;45999;48.808;9.182;2024-03-08T11:06:42;15.37;;;12.03;;
146;SDS011;45999;48.808;9.182;2024-03-08T11:09:45;14.07;;;11.97;;
146;SDS011;45999;48.808;9.182;2024-03-08T11:12:25;14.20;;;11.67;;
146;SDS011;45999;48.808;9.182;2024-03-08T11:14:56;15.13;;;12.70;;
146;SDS011;45999;48.808;9.182;2024-03-08T11:19:55;14.03;;;12.13;;
146;SDS011;45999;48.808;9.182;2024-03-08T11:22:27;17.53;;;12.90;;
146;SDS011;45999;48.808;9.182;2024-03-08T11:25:02;15.40;;;13.00;;
146;SDS011;45999;48.808;9.182;2024-03-08T11:27:34;15.73;;;12.67;;
146;SDS011;45999;48.808;9.182;2024-03-08T11:30:05;15.63;;;13.43;;
146;SDS011;45999;48.808;9.182;2024-03-08T11:32:36;14.33;;;12.40;;
146;SDS011;45999;48.808;9.182;2024-03-08T11:35:07;16.17;;;12.30;;
146;SDS011;45999;48.808;9.182;2024-03-08T11:37:44;17.03;;;13.17;;
146;SDS011;45999;48.808;9.182;2024-03-08T11:40:12;15.73;;;12.50;;
146;SDS011;45999;48.808;9.182;2024-03-08T11:42:43;16.10;;;13.43;;
146;SDS011;45999;48.808;9.182;2024-03-08T11:45:11;16.80;;;13.50;;
146;SDS011;45999;48.808;9.182;2024-03-08T11:47:38;15.40;;;12.53;;
146;SDS011;45999;48.808;9.182;2024-03-08T11:50:07;16.10;;;13.63;;
146;SDS011;45999;48.808;9.182;2024-03-08T11:52:38;16.83;;;12.67;;
146;SDS011;45999;48.808;9.182;2024-03-08T11:55:04;15.60;;;13.40;;
146;SDS011;45999;48.808;9.182;2024-03-08T11:57:31;15.60;;;13.17;;
146;SDS011;45999;48.808;9.182;2024-03-08T11:59:58;16.80;;;13.30;;
146;SDS011;45999;48.808;9.182;2024-03-08T12:02:31;16.27;;;13.53;;
146;SDS011;45999;48.808;9.182;2024-03-08T12:05:00;16.67;;;13.47;;
146;SDS011;45999;48.808;9.182;2024-03-08T12:07:28;15.30;;;13.07;;
146;SDS011;45999;48.808;9.182;2024-03-08T12:10:16;18.53;;;14.40;;
146;SDS011;45999;48.808;9.182;2024-03-08T12:12:48;15.93;;;13.17;;
146;SDS011;45999;48.808;9.182;2024-03-08T12:15:16;15.90;;;13.17;;
146;SDS011;45999;48.808;9.182;2024-03-08T12:17:44;15.77;;;13.63;;
146;SDS011;45999;48.808;9.182;2024-03-08T12:20:16;16.30;;;13.43;;
146;SDS011;45999;48.808;9.182;2024-03-08T12:22:44;20.07;;;15.37;;
146;SDS011;45999;48.808;9.182;2024-03-08T12:25:11;19.60;;;14.07;;
146;SDS011;45999;48.808;9.182;2024-03-08T12:27:39;18.87;;;13.20;;
146;SDS011;45999;48.808;9.182;2024-03-08T12:30:25;18.80;;;15.07;;
146;SDS011;45999;48.808;9.182;2024-03-08T12:35:24;18.73;;;14.40;;
146;SDS011;45999;48.808;9.182;2024-03-08T12:37:56;16.97;;;14.07;;
146;SDS011;45999;48.808;9.182;2024-03-08T12:40:26;18.67;;;14.30;;
146;SDS011;45999;48.808;9.182;2024-03-08T12:42:55;19.57;;;14.87;;
146;SDS011;45999;48.808;9.182;2024-03-08T12:45:22;21.03;;;15.30;;
146;SDS011;45999;48.808;9.182;2024-03-08T12:47:52;19.13;;;14.60;;
146;SDS011;45999;48.808;9.182;2024-03-08T12:50:22;20.03;;;15.33;;
146;SDS011;45999;48.808;9.182;2024-03-08T12:52:49;18.40;;;14.57;;
146;SDS011;45999;48.808;9.182;2024-03-08T12:55:17;19.90;;;15.47;;
146;SDS011;45999;48.808;9.182;2024-03-08T12:57:44;18.73;;;14.90;;
146;SDS011;45999;48.808;9.182;2024-03-08T13:00:12;18.20;;;14.53;;
146;SDS011;45999;48.808;9.182;2024-03-08T13:02:44;18.40;;;15.23;;
146;SDS011;45999;48.808;9.182;2024-03-08T13:05:11;20.20;;;15.60;;
146;SDS011;45999;48.808;9.182;2024-03-08T13:07:39;18.17;;;14.97;;
146;SDS011;45999;48.808;9.182;2024-03-08T13:10:11;18.03;;;14.97;;
146;SDS011;45999;48.808;9.182;2024-03-08T13:12:42;18.63;;;14.73;;
146;SDS011;45999;48.808;9.182;2024-03-08T13:15:09;21.57;;;15.73;;
146;SDS011;45999;48.808;9.182;2024-03-08T13:17:40;20.33;;;15.30;;
146;SDS011;45999;48.808;9.182;2024-03-08T13:20:07;20.33;;;15.73;;
146;SDS011;45999;48.808;9.182;2024-03-08T13:22:35;18.90;;;15.20;;
146;SDS011;45999;48.808;9.182;2024-03-08T13:25:02;18.50;;;15.03;;
146;SDS011;45999;48.808;9.182;2024-03-08T13:27:30;18.27;;;14.07;;
146;SDS011;45999;48.808;9.182;2024-03-08T13:30:03;18.27;;;14.37;;
146;SDS011;45999;48.808;9.182;2024-03-08T13:32:40;20.07;;;15.33;;
146;SDS011;45999;48.808;9.182;2024-03-08T13:35:12;18.03;;;14.77;;
146;SDS011;45999;48.808;9.182;2024-03-08T13:37:39;17.60;;;14.10;;
146;SDS011;45999;48.808;9.182;2024-03-08T13:40:06;18.30;;;14.20;;
146;SDS011;45999;48.808;9.182;2024-03-08T13:42:38;18.33;;;14.03;;
146;SDS011;45999;48.808;9.182;2024-03-08T13:45:08;18.47;;;14.23;;
146;SDS011;45999;48.808;9.182;2024-03-08T13:47:40;18.77;;;14.47;;
146;SDS011;45999;48.808;9.182;2024-03-08T13:50:07;19.53;;;15.10;;
146;SDS011;45999;48.808;9.182;2024-03-08T13:52:36;21.53;;;15.53;;
146;SDS011;45999;48.808;9.182;2024-03-08T13:55:03;18.07;;;14.90;;
146;SDS011;45999;48.808;9.182;2024-03-08T13:57:31;19.07;;;15.37;;
146;SDS011;45999;48.808;9.182;2024-03-08T13:59:58;16.33;;;13.00;;
146;SDS011;45999;48.808;9.182;2024-03-08T14:02:25;19.33;;;15.27;;
146;SDS011;45999;48.808;9.182;2024-03-08T14:04:57;17.80;;;14.27;;
146;SDS011;45999;48.808;9.182;2024-03-08T14:07:26;20.40;;;14.87;;
146;SDS011;45999;48.808;9.182;2024-03-08T14:09:54;19.80;;;15.50;;
146;SDS011;45999;48.808;9.182;2024-03-08T14:12:20;20.33;;;15.90;;
146;SDS011;45999;48.808;9.182;2024-03-08T14:14:48;16.63;;;12.60;;
146;SDS011;45999;48.808;9.182;2024-03-08T14:17:15;18.97;;;15.23;;
146;SDS011;45999;48.808;9.182;2024-03-08T14:19:42;19.27;;;15.07;;
146;SDS011;45999;48.808;9.182;2024-03-08T14:22:09;19.17;;;14.90;;
146;SDS011;45999;48.808;9.182;2024-03-08T14:24:39;18.77;;;14.93;;
146;SDS011;45999;48.808;9.182;2024-03-08T14:27:09;18.50;;;14.87;;
146;SDS011;45999;48.808;9.182;2024-03-08T14:29:37;17.50;;;14.27;;
146;SDS011;45999;48.808;9.182;2024-03-08T14:32:04;16.70;;;13.63;;
146;SDS011;45999;48.808;9.182;2024-03-08T14:34:33;18.83;;;14.63;;
146;SDS011;45999;48.808;9.182;2024-03-08T14:37:00;17.37;;;13.57;;
146;SDS011;45999;48.808;9.182;2024-03-08T14:39:33;18.57;;;14.53;;
146;SDS011;45999;48.808;9.182;2024-03-08T14:41:59;18.27;;;14.53;;
146;SDS011;45999;48.808;9.182;2024-03-08T14:44:28;18.03;;;15.17;;
146;SDS011;45999;48.808;9.182;2024-03-08T14:46:57;18.30;;;14.77;;
146;SDS011;45999;48.808;9.182;2024-03-08T14:49:24;17.30;;;14.30;;
146;SDS011;45999;48.808;9.182;2024-03-08T14:51:54;16.17;;;13.67;;
146;SDS011;45999;48.808;9.182;2024-03-08T14:54:23;19.03;;;14.47;;
146;SDS011;45999;48.808;9.182;2024-03-08T14:56:49;20.47;;;14.30;;
146;SDS011;45999;48.808;9.182;2024-03-08T14:59:16;18.20;;;14.57;;
146;SDS011;45999;48.808;9.182;2024-03-08T15:01:44;18.37;;;14.97;;
146;SDS011;45999;48.808;9.182;2024-03-08T15:04:11;18.23;;;15.03;;